Nuttings Lake, Massachusetts
Current Conditions -  °F | °C
As of 7:26 AM on Friday 24 Oct 2014 (Local Time) from KBED Reporting Station
Overcast Overcast  
Wind Chill: 45°   Ceiling: 800
Heat Index: 49°   Visibility: 10mi
Dew Point: 47°   Wind: 10mph
Humidity: 93%   Direction: 320°NW
Pressure: 29.69"   Gusts: NA
Location:  42.5381°N, 71.2689°W
Report Text: KBED 241126Z 32009KT 10SM OVC008 09/08 A2969 RMK AO2 T00940083
Loading
Personal Weather Stations






























Interactive Weather Map
Tropical Storm Tracking
New forecast layout! Learn more

10-Day Weather Forecast

Advertisements
Track Severe Weather on mobile